Time;durP1;ratioP1;P1;durP2;ratioP2;P2;SDS_P1;SDS_P2;PMS_P1;PMS_P2;Temp;Humidity;BMP_temperature;BMP_pressure;BME280_temperature;BME280_humidity;BME280_pressure;Samples;Min_cycle;Max_cycle;Signal;HPM_P1;HPM_P2
2021/06/04 00:00:45;;;;;;;3.90;2.87;;;24.50;49.30;;;;;;4987515;28;20444;-81
2021/06/04 00:03:18;;;;;;;2.40;2.20;;;24.60;49.40;;;;;;4995486;28;20413;-80
2021/06/04 00:05:48;;;;;;;2.63;2.43;;;24.50;49.30;;;;;;4995748;28;20405;-80
2021/06/04 00:08:18;;;;;;;3.57;3.27;;;24.60;49.40;;;;;;5005621;28;20433;-80
2021/06/04 00:11:01;;;;;;;2.60;2.40;;;24.60;49.30;;;;;;5056297;28;20419;-80
2021/06/04 00:13:37;;;;;;;3.30;3.00;;;24.60;49.30;;;;;;5055175;28;20403;-81
2021/06/04 00:16:14;;;;;;;4.30;2.83;;;24.50;49.30;;;;;;5054915;28;20406;-81
2021/06/04 00:18:41;;;;;;;3.43;3.07;;;24.60;49.30;;;;;;5053512;28;20409;-80
2021/06/04 00:21:13;;;;;;;3.00;2.70;;;24.50;49.30;;;;;;5037769;28;20464;-79
2021/06/04 00:23:40;;;;;;;3.33;3.03;;;24.60;49.30;;;;;;5056046;28;20390;-78
2021/06/04 00:26:06;;;;;;;2.90;2.70;;;24.60;49.40;;;;;;5054853;28;20402;-78
2021/06/04 00:28:32;;;;;;;3.10;2.80;;;24.60;49.40;;;;;;5054097;28;20508;-78
2021/06/04 00:30:59;;;;;;;4.77;3.03;;;24.50;49.30;;;;;;5036521;28;20429;-78
2021/06/04 00:33:28;;;;;;;3.30;3.00;;;24.60;49.40;;;;;;5036788;28;20190;-79
2021/06/04 00:35:57;;;;;;;2.73;2.53;;;24.60;49.40;;;;;;5054295;28;20848;-78
2021/06/04 00:38:25;;;;;;;2.90;2.70;;;24.60;49.40;;;;;;5054064;28;20515;-81
2021/06/04 00:41:03;;;;;;;2.83;2.63;;;24.60;49.40;;;;;;5055924;28;20401;-78
2021/06/04 00:43:29;;;;;;;3.47;3.17;;;24.60;49.30;;;;;;5056098;28;20390;-79
2021/06/04 00:45:56;;;;;;;3.23;2.93;;;24.60;49.40;;;;;;5037882;28;20490;-79
2021/06/04 00:48:23;;;;;;;3.80;3.40;;;24.50;49.30;;;;;;5055375;28;20183;-79
2021/06/04 00:50:54;;;;;;;2.93;2.63;;;24.60;49.40;;;;;;5051585;28;20426;-77
2021/06/04 00:53:23;;;;;;;2.60;2.40;;;24.60;49.40;;;;;;5031250;28;20427;-78
2021/06/04 00:55:49;;;;;;;2.90;2.70;;;24.60;49.40;;;;;;5047943;28;20417;-76
2021/06/04 00:58:21;;;;;;;3.50;3.20;;;24.50;49.30;;;;;;5048991;28;20461;-77
2021/06/04 01:00:50;;;;;;;3.10;2.90;;;24.60;49.40;;;;;;5030690;28;20506;-77
2021/06/04 01:03:18;;;;;;;3.40;3.07;;;24.50;49.30;;;;;;5048346;28;20406;-77
2021/06/04 01:05:47;;;;;;;3.27;2.97;;;24.50;49.30;;;;;;5047967;28;20414;-77
2021/06/04 01:08:31;;;;;;;3.07;2.77;;;24.50;49.40;;;;;;5047938;28;20410;-77
2021/06/04 01:11:27;;;;;;;3.57;3.27;;;24.60;49.40;;;;;;5035383;28;20418;-78
2021/06/04 01:14:21;;;;;;;3.57;3.20;;;24.60;49.40;;;;;;5053354;28;20458;-78
2021/06/04 01:17:03;;;;;;;3.97;3.40;;;24.60;49.40;;;;;;5036241;28;20450;-80
2021/06/04 01:19:48;;;;;;;3.00;2.80;;;24.60;49.40;;;;;;5038505;28;20395;-80
2021/06/04 01:22:28;;;;;;;3.33;3.13;;;24.60;49.40;;;;;;5038328;28;20422;-80
2021/06/04 01:25:32;;;;;;;3.63;3.13;;;24.60;49.40;;;;;;5038163;28;20505;-80
2021/06/04 01:28:07;;;;;;;4.73;3.50;;;24.60;49.40;;;;;;5055570;28;20410;-80
2021/06/04 01:30:44;;;;;;;3.40;3.10;;;24.60;49.40;;;;;;5038017;28;20434;-80
2021/06/04 01:33:17;;;;;;;3.50;3.20;;;24.60;49.40;;;;;;5055741;28;20395;-80
2021/06/04 01:35:47;;;;;;;3.30;3.00;;;24.60;49.30;;;;;;5055308;28;20418;-80
2021/06/04 01:38:19;;;;;;;3.43;3.13;;;24.60;49.30;;;;;;5055509;28;20485;-80
2021/06/04 01:40:48;;;;;;;3.40;3.10;;;24.60;49.30;;;;;;5038081;28;20421;-80
2021/06/04 01:43:26;;;;;;;3.70;3.40;;;24.60;49.30;;;;;;5037927;28;20422;-80
2021/06/04 01:46:15;;;;;;;3.40;3.20;;;24.70;49.40;;;;;;5035654;28;20388;-80
2021/06/04 01:48:47;;;;;;;3.70;3.40;;;24.70;49.30;;;;;;5015310;28;20425;-80
2021/06/04 01:51:36;;;;;;;3.17;2.97;;;24.60;49.30;;;;;;5037089;28;20403;-78
2021/06/04 01:54:12;;;;;;;5.00;3.60;;;24.70;49.40;;;;;;5053245;28;20387;-78
2021/06/04 01:56:46;;;;;;;3.33;3.03;;;24.70;49.40;;;;;;5052427;28;20442;-78
2021/06/04 01:59:20;;;;;;;3.80;3.50;;;24.70;49.40;;;;;;5053204;28;20420;-78
2021/06/04 02:01:48;;;;;;;3.30;3.00;;;24.70;49.30;;;;;;5053523;28;20394;-78
2021/06/04 02:04:27;;;;;;;3.50;3.20;;;24.70;49.30;;;;;;5069742;28;20489;-80
2021/06/04 02:06:56;;;;;;;3.07;2.87;;;24.60;49.30;;;;;;5055252;28;20398;-80
2021/06/04 02:09:26;;;;;;;3.50;3.20;;;24.60;49.30;;;;;;5059503;28;20406;-80
2021/06/04 02:11:52;;;;;;;3.43;3.20;;;24.60;49.30;;;;;;5059267;28;20817;-80
2021/06/04 02:14:29;;;;;;;3.53;3.23;;;24.60;49.40;;;;;;5036264;28;20446;-80
2021/06/04 02:17:21;;;;;;;3.53;3.23;;;24.70;49.50;;;;;;5039504;28;20461;-80
2021/06/04 02:20:02;;;;;;;3.60;3.27;;;24.70;49.50;;;;;;5041572;28;20413;-80
2021/06/04 02:22:34;;;;;;;3.57;3.27;;;24.60;49.50;;;;;;5041502;28;20414;-80
2021/06/04 02:25:27;;;;;;;4.33;3.93;;;24.60;49.50;;;;;;5059274;28;20406;-80
2021/06/04 02:28:21;;;;;;;3.93;3.63;;;24.60;49.50;;;;;;5041624;28;20398;-80
2021/06/04 02:30:56;;;;;;;3.80;3.50;;;24.60;49.50;;;;;;5041612;28;20434;-80
2021/06/04 02:33:31;;;;;;;3.00;2.80;;;24.60;49.60;;;;;;5040774;28;20398;-80
2021/06/04 02:36:05;;;;;;;4.67;3.77;;;24.60;49.60;;;;;;5056292;28;20417;-79
2021/06/04 02:38:43;;;;;;;3.10;2.80;;;24.60;49.60;;;;;;5056600;28;20449;-78
2021/06/04 02:41:15;;;;;;;3.53;3.20;;;24.60;49.60;;;;;;5000513;28;20431;-78
2021/06/04 02:43:46;;;;;;;3.40;3.20;;;24.60;49.60;;;;;;5031928;28;20399;-78
2021/06/04 02:46:20;;;;;;;4.00;3.70;;;24.60;49.60;;;;;;5036520;28;20431;-78
2021/06/04 02:48:49;;;;;;;3.83;3.53;;;24.60;49.60;;;;;;5018547;28;20418;-78
2021/06/04 02:51:43;;;;;;;3.90;3.47;;;24.60;49.60;;;;;;5018550;28;20401;-78
2021/06/04 02:54:16;;;;;;;3.63;3.33;;;24.60;49.60;;;;;;5005068;28;20439;-78
2021/06/04 02:56:53;;;;;;;3.40;3.10;;;24.50;49.60;;;;;;5019058;28;20806;-78
2021/06/04 02:59:32;;;;;;;3.20;2.90;;;24.60;49.60;;;;;;5041096;28;20444;-78
2021/06/04 03:02:06;;;;;;;4.60;3.90;;;24.50;49.60;;;;;;5055095;28;20430;-78
2021/06/04 03:04:35;;;;;;;4.10;3.70;;;24.50;49.60;;;;;;5054769;28;20413;-77
2021/06/04 03:07:06;;;;;;;3.27;2.97;;;24.50;49.60;;;;;;5054986;28;20419;-78
2021/06/04 03:09:35;;;;;;;3.23;3.00;;;24.50;49.60;;;;;;5055026;28;20407;-78
2021/06/04 03:12:07;;;;;;;4.80;3.80;;;24.50;49.60;;;;;;5055315;28;20418;-78
2021/06/04 03:14:33;;;;;;;4.23;3.70;;;24.50;49.60;;;;;;5054725;28;20415;-77
2021/06/04 03:17:01;;;;;;;3.77;3.47;;;24.50;49.60;;;;;;5054714;28;20462;-78
2021/06/04 03:19:27;;;;;;;3.70;3.30;;;24.50;49.60;;;;;;5054726;28;20450;-78
2021/06/04 03:22:02;;;;;;;3.80;3.50;;;24.50;49.60;;;;;;5055563;28;20507;-78
2021/06/04 03:24:32;;;;;;;3.50;3.30;;;24.50;49.60;;;;;;5038602;28;20398;-78
2021/06/04 03:27:00;;;;;;;3.80;3.47;;;24.50;49.60;;;;;;5055829;28;20458;-78
2021/06/04 03:29:27;;;;;;;3.60;3.30;;;24.50;49.70;;;;;;5055326;28;20424;-78
2021/06/04 03:32:07;;;;;;;3.90;3.60;;;24.50;49.70;;;;;;5055812;28;20434;-78
2021/06/04 03:34:33;;;;;;;3.97;3.60;;;24.50;49.70;;;;;;5055581;28;20506;-78
2021/06/04 03:37:01;;;;;;;3.40;3.17;;;24.50;49.70;;;;;;5055329;28;20468;-77
2021/06/04 03:39:31;;;;;;;3.70;3.40;;;24.50;49.70;;;;;;5037936;28;20429;-78
2021/06/04 03:41:57;;;;;;;3.90;3.60;;;24.50;49.70;;;;;;5038732;28;20421;-78
2021/06/04 03:44:28;;;;;;;3.20;3.00;;;24.50;49.70;;;;;;5054172;28;20418;-78
2021/06/04 03:46:55;;;;;;;4.43;3.63;;;24.50;49.70;;;;;;5054903;28;20407;-78
2021/06/04 03:49:25;;;;;;;3.83;3.50;;;24.50;49.70;;;;;;5053950;28;20454;-78
2021/06/04 03:51:53;;;;;;;4.20;3.80;;;24.50;49.70;;;;;;5054092;28;20761;-78
2021/06/04 03:54:26;;;;;;;3.80;3.50;;;24.50;49.70;;;;;;5055317;28;20410;-78
2021/06/04 03:56:52;;;;;;;3.80;3.30;;;24.50;49.70;;;;;;5054834;28;20454;-78
2021/06/04 03:59:18;;;;;;;4.00;3.70;;;24.50;49.80;;;;;;5055067;28;20414;-78
2021/06/04 04:01:52;;;;;;;3.60;3.30;;;24.50;49.80;;;;;;5055419;28;20411;-78
2021/06/04 04:04:19;;;;;;;4.07;3.77;;;24.50;49.70;;;;;;5053969;28;20422;-78
2021/06/04 04:06:48;;;;;;;4.10;3.70;;;24.50;49.80;;;;;;5055104;28;20414;-78
2021/06/04 04:09:15;;;;;;;3.83;3.60;;;24.50;49.80;;;;;;5053880;28;20418;-78
2021/06/04 04:11:43;;;;;;;6.90;3.40;;;24.50;49.80;;;;;;5054584;28;20423;-77
2021/06/04 04:14:09;;;;;;;3.80;3.50;;;24.50;49.80;;;;;;5053794;28;20525;-78
2021/06/04 04:16:35;;;;;;;3.90;3.60;;;24.50;49.80;;;;;;5053362;28;20415;-78
2021/06/04 04:19:02;;;;;;;3.90;3.60;;;24.50;49.80;;;;;;5033919;28;20416;-78
2021/06/04 04:21:28;;;;;;;3.80;3.50;;;24.50;49.80;;;;;;5034798;28;20901;-78
2021/06/04 04:23:58;;;;;;;3.87;3.57;;;24.50;49.80;;;;;;5042587;28;20402;-78
2021/06/04 04:26:31;;;;;;;3.77;3.47;;;24.50;49.80;;;;;;5035474;28;20272;-78
2021/06/04 04:29:00;;;;;;;4.30;4.00;;;24.50;49.80;;;;;;5035264;28;20469;-78
2021/06/04 04:31:29;;;;;;;3.97;3.67;;;24.50;49.90;;;;;;5024353;28;20427;-78
2021/06/04 04:33:56;;;;;;;3.90;3.57;;;24.50;49.80;;;;;;5038472;28;20415;-78
2021/06/04 04:36:30;;;;;;;3.60;3.30;;;24.50;49.90;;;;;;5044997;28;20422;-79
2021/06/04 04:38:56;;;;;;;3.70;3.40;;;24.50;49.90;;;;;;5035371;28;20464;-79
2021/06/04 04:41:22;;;;;;;3.50;3.20;;;24.50;49.90;;;;;;5054958;28;20674;-79
2021/06/04 04:43:50;;;;;;;4.10;3.80;;;24.40;49.80;;;;;;5054998;28;20433;-80
2021/06/04 04:46:22;;;;;;;4.20;3.90;;;24.40;49.80;;;;;;5036403;28;20430;-81
2021/06/04 04:48:48;;;;;;;4.00;3.70;;;24.50;49.90;;;;;;5053129;28;20471;-79
2021/06/04 04:51:21;;;;;;;4.17;3.77;;;24.40;50.50;;;;;;5029665;28;20417;-79
2021/06/04 04:53:47;;;;;;;3.70;3.40;;;24.50;49.90;;;;;;5021162;28;20181;-80
2021/06/04 04:56:13;;;;;;;3.77;3.43;;;24.50;49.90;;;;;;5053617;28;20433;-79
2021/06/04 04:58:39;;;;;;;3.07;2.87;;;24.50;49.90;;;;;;5035721;28;20450;-79
2021/06/04 05:01:09;;;;;;;4.03;3.70;;;24.50;49.90;;;;;;5052993;28;20414;-79
2021/06/04 05:03:35;;;;;;;4.30;3.90;;;24.50;49.90;;;;;;5052345;28;20419;-79
2021/06/04 05:06:01;;;;;;;3.90;3.60;;;24.50;50.00;;;;;;5053309;28;20480;-80
2021/06/04 05:08:27;;;;;;;4.50;4.20;;;24.50;49.90;;;;;;5036836;28;20441;-78
2021/06/04 05:10:56;;;;;;;3.70;3.40;;;24.50;50.00;;;;;;5054459;28;20430;-80
2021/06/04 05:13:22;;;;;;;5.10;3.30;;;24.50;50.00;;;;;;5053497;28;20241;-79
2021/06/04 05:15:48;;;;;;;3.20;3.00;;;24.50;50.00;;;;;;5035995;28;20418;-78
2021/06/04 05:18:17;;;;;;;4.00;3.60;;;24.50;50.00;;;;;;5033953;28;20584;-77
2021/06/04 05:20:45;;;;;;;4.50;4.10;;;24.50;50.00;;;;;;5050964;28;20434;-77
2021/06/04 05:23:13;;;;;;;3.60;3.30;;;24.50;50.00;;;;;;5048590;28;20418;-78
2021/06/04 05:25:43;;;;;;;3.60;3.30;;;24.50;50.00;;;;;;5031576;28;20418;-78
2021/06/04 05:28:10;;;;;;;4.03;3.73;;;24.50;50.10;;;;;;5049442;28;20433;-77
2021/06/04 05:30:40;;;;;;;3.83;3.50;;;24.50;50.00;;;;;;5030977;28;20817;-80
2021/06/04 05:33:09;;;;;;;3.80;3.50;;;24.50;50.00;;;;;;5031034;28;20422;-79
2021/06/04 05:35:35;;;;;;;4.00;3.70;;;24.40;50.00;;;;;;5049597;28;20478;-79
2021/06/04 05:38:02;;;;;;;3.60;3.30;;;24.50;50.00;;;;;;5048614;28;20472;-78
2021/06/04 05:40:33;;;;;;;4.00;3.63;;;24.40;49.90;;;;;;5031850;28;20422;-78
2021/06/04 05:43:00;;;;;;;3.10;2.90;;;24.50;50.00;;;;;;5031216;28;20433;-79
2021/06/04 05:45:29;;;;;;;3.40;3.10;;;24.50;50.00;;;;;;5049021;28;20457;-79
2021/06/04 05:47:55;;;;;;;3.60;3.27;;;24.50;50.00;;;;;;5031589;28;20419;-79
2021/06/04 05:50:28;;;;;;;3.67;3.37;;;24.40;49.90;;;;;;5049043;28;20410;-78
2021/06/04 06:00:14;;;;;;;;;;;;;;;;;;;;;
2021/06/04 06:03:15;;;;;;;3.30;3.10;;;24.40;50.00;;;;;;4965871;29;20434;-78
2021/06/04 06:05:41;;;;;;;5.13;3.77;;;24.40;50.00;;;;;;4945064;29;20422;-79
2021/06/04 06:08:07;;;;;;;4.13;3.40;;;24.40;50.00;;;;;;4970765;29;20498;-79
2021/06/04 06:10:33;;;;;;;3.60;3.30;;;24.40;50.00;;;;;;4975677;29;20190;-80
2021/06/04 06:13:09;;;;;;;3.63;3.33;;;24.40;50.00;;;;;;4974095;29;20426;-87
2021/06/04 06:15:39;;;;;;;3.63;3.33;;;24.50;50.10;;;;;;4956084;29;20427;-81
2021/06/04 06:18:07;;;;;;;3.00;2.80;;;24.40;50.00;;;;;;4974443;29;20438;-81
2021/06/04 06:20:37;;;;;;;3.03;2.83;;;24.40;50.00;;;;;;4974110;29;20411;-81
2021/06/04 06:23:13;;;;;;;3.97;3.60;;;24.40;50.00;;;;;;4975195;29;20442;-82
2021/06/04 06:26:22;;;;;;;;;;;;;;;;;;;;;
2021/06/04 06:36:21;;;;;;;3.70;3.40;;;24.50;50.10;;;;;;5032527;28;20587;-81
2021/06/04 06:38:50;;;;;;;6.10;3.40;;;24.60;50.30;;;;;;4962051;28;20476;-82
2021/06/04 06:41:24;;;;;;;3.83;3.53;;;24.50;50.20;;;;;;4994229;28;20405;-82
2021/06/04 06:43:52;;;;;;;4.87;3.33;;;24.60;50.40;;;;;;4977194;28;20413;-82
2021/06/04 06:46:20;;;;;;;3.60;3.30;;;24.60;50.30;;;;;;4977521;28;20461;-82
2021/06/04 06:48:46;;;;;;;4.20;3.87;;;24.70;50.50;;;;;;4977877;28;20476;-82
2021/06/04 06:51:15;;;;;;;4.50;3.43;;;24.70;50.40;;;;;;4992727;28;20417;-82
2021/06/04 06:53:42;;;;;;;4.00;3.50;;;24.70;50.30;;;;;;4976722;28;20405;-81
2021/06/04 06:56:15;;;;;;;3.53;3.20;;;24.70;50.30;;;;;;4980325;28;20825;-82
2021/06/04 06:58:42;;;;;;;4.13;3.37;;;24.70;50.30;;;;;;4977539;28;20437;-82
2021/06/04 07:01:12;;;;;;;3.60;3.30;;;24.80;50.40;;;;;;4960800;29;20402;-82
2021/06/04 07:03:53;;;;;;;6.00;3.60;;;24.80;50.30;;;;;;4976965;29;20486;-82
2021/06/04 07:06:28;;;;;;;4.70;4.30;;;24.80;50.30;;;;;;4961316;29;20417;-82
2021/06/04 07:08:56;;;;;;;4.43;3.50;;;24.80;50.30;;;;;;5002765;28;20465;-83
2021/06/04 07:11:24;;;;;;;3.43;3.13;;;24.80;50.30;;;;;;5038108;28;20421;-83
2021/06/04 07:13:53;;;;;;;4.70;3.83;;;24.80;50.30;;;;;;5037382;28;20418;-83
2021/06/04 07:16:19;;;;;;;3.90;3.30;;;24.90;50.30;;;;;;5056403;28;20425;-83
2021/06/04 07:18:50;;;;;;;4.50;3.23;;;24.90;50.30;;;;;;5039792;28;20462;-82
2021/06/04 07:21:21;;;;;;;5.13;3.47;;;24.90;50.30;;;;;;5039742;28;20529;-82
2021/06/04 07:23:48;;;;;;;3.57;3.27;;;24.90;50.30;;;;;;5056150;28;20433;-82
2021/06/04 07:26:18;;;;;;;2.87;2.60;;;24.90;50.30;;;;;;5039723;28;20426;-82
2021/06/04 07:48:27;;;;;;;4.13;3.73;;;24.90;50.30;;;;;;5054696;28;20379;-81
2021/06/04 07:50:57;;;;;;;3.43;3.13;;;24.90;50.40;;;;;;5038099;28;20445;-81
2021/06/04 07:53:35;;;;;;;4.00;3.60;;;24.90;50.30;;;;;;5038553;28;20443;-81
2021/06/04 07:56:01;;;;;;;3.10;2.77;;;25.00;50.40;;;;;;5054322;28;20869;-80
2021/06/04 07:58:27;;;;;;;3.33;3.03;;;25.00;50.40;;;;;;5037024;28;20454;-81
2021/06/04 08:01:03;;;;;;;4.80;3.87;;;25.00;50.30;;;;;;5037043;28;20445;-81
2021/06/04 08:04:00;;;;;;;3.80;3.50;;;25.00;50.20;;;;;;5031029;28;20428;-80
2021/06/04 08:06:32;;;;;;;6.00;3.63;;;25.00;50.20;;;;;;5032080;28;20472;-80
2021/06/04 08:09:01;;;;;;;8.17;3.20;;;25.00;50.30;;;;;;5032965;28;20761;-80
2021/06/04 08:12:01;;;;;;;4.70;3.37;;;25.00;50.30;;;;;;5050224;28;20415;-80
2021/06/04 08:14:37;;;;;;;6.53;3.47;;;25.00;50.30;;;;;;5016146;28;20493;-80
2021/06/04 08:17:12;;;;;;;3.43;3.13;;;25.10;50.40;;;;;;5032371;28;20461;-80
2021/06/04 08:19:41;;;;;;;4.13;3.40;;;25.10;50.40;;;;;;5033028;28;20437;-80
2021/06/04 08:22:14;;;;;;;3.80;3.00;;;25.00;50.40;;;;;;5032994;28;20426;-80
2021/06/04 08:24:52;;;;;;;3.93;3.30;;;25.10;50.40;;;;;;5034075;28;20486;-80
2021/06/04 08:31:35;;;;;;;3.57;3.27;;;25.10;50.40;;;;;;5016171;28;20449;-80
2021/06/04 08:37:38;;;;;;;4.33;3.93;;;25.10;50.40;;;;;;4990370;28;20467;-80
2021/06/04 08:40:46;;;;;;;4.47;3.30;;;25.10;50.40;;;;;;4981879;28;20444;-81
2021/06/04 09:04:07;;;;;;;4.33;3.20;;;25.10;50.50;;;;;;4916420;29;20399;-82
2021/06/04 09:11:15;;;;;;;3.90;3.30;;;25.10;50.50;;;;;;4880484;29;20402;-82
2021/06/04 09:27:41;;;;;;;3.10;2.80;;;25.20;50.60;;;;;;4918418;29;20515;-83
2021/06/04 09:40:59;;;;;;;4.00;3.00;;;25.20;50.50;;;;;;4880953;29;20463;-82
2021/06/04 09:44:25;;;;;;;4.40;3.43;;;25.20;50.50;;;;;;4878462;29;20428;-82
2021/06/04 09:48:13;;;;;;;;;;;;;;;;;;;;;
2021/06/04 09:54:28;;;;;;;3.50;3.00;;;25.30;50.50;;;;;;4841362;29;20431;-82
2021/06/04 10:11:12;;;;;;;4.77;2.97;;;25.30;50.40;;;;;;4823110;29;20389;-81
2021/06/04 10:21:20;;;;;;;;;;;;;;;;;;;;;
2021/06/04 10:24:49;;;;;;;;;;;;;;;;;;;;;
2021/06/04 10:44:49;;;;;;;3.20;3.00;;;25.30;50.40;;;;;;4996878;28;20480;-84
2021/06/04 10:54:23;;;;;;;3.30;3.00;;;25.40;50.50;;;;;;4976654;28;20429;-84
2021/06/04 10:57:02;;;;;;;3.13;2.83;;;25.40;50.50;;;;;;4903921;29;20421;-85
2021/06/04 11:00:26;;;;;;;;;;;;;;;;;;;;;
2021/06/04 11:10:06;;;;;;;;;;;;;;;;;;;;;
2021/06/04 11:12:53;;;;;;;2.90;2.70;;;25.40;50.40;;;;;;4978612;28;20430;-83
2021/06/04 11:22:29;;;;;;;3.37;3.07;;;25.40;50.50;;;;;;4957193;28;20403;-82
2021/06/04 11:25:13;;;;;;;4.07;3.20;;;25.40;50.60;;;;;;4904358;29;20423;-81
2021/06/04 11:27:52;;;;;;;3.70;3.30;;;25.40;50.50;;;;;;4997660;28;20497;-81
2021/06/04 11:30:28;;;;;;;4.07;3.37;;;25.40;50.50;;;;;;4994959;28;20435;-84
2021/06/04 11:33:06;;;;;;;2.73;2.53;;;25.40;50.40;;;;;;4974432;28;20431;-84
2021/06/04 11:36:12;;;;;;;3.10;2.90;;;25.40;50.40;;;;;;4978935;28;20513;-82
2021/06/04 11:38:57;;;;;;;3.17;2.87;;;25.50;50.50;;;;;;4995374;28;20537;-81
2021/06/04 11:41:52;;;;;;;2.97;2.63;;;25.40;50.30;;;;;;4994628;28;20413;-80
2021/06/04 11:44:25;;;;;;;2.90;2.70;;;25.40;50.30;;;;;;4980406;28;20390;-80
2021/06/04 11:47:12;;;;;;;3.00;2.80;;;25.40;50.20;;;;;;4995810;28;20409;-79
2021/06/04 11:49:59;;;;;;;2.93;2.67;;;25.50;50.30;;;;;;4979834;28;20420;-79
2021/06/04 11:52:45;;;;;;;3.40;3.10;;;25.50;50.30;;;;;;4996202;28;20402;-79
2021/06/04 11:55:36;;;;;;;2.80;2.60;;;25.50;50.30;;;;;;5010193;28;20417;-79
2021/06/04 11:58:32;;;;;;;3.30;2.77;;;25.40;50.20;;;;;;5057328;28;20466;-79
2021/06/04 12:01:23;;;;;;;3.40;3.10;;;25.50;50.20;;;;;;5039282;28;20421;-80
2021/06/04 12:04:53;;;;;;;;;;;;;;;;;;;;;
2021/06/04 12:11:16;;;;;;;3.53;3.23;;;25.40;50.20;;;;;;5042725;28;20442;-79
2021/06/04 12:14:15;;;;;;;;;;;;;;;;;;;;;
2021/06/04 12:17:25;;;;;;;3.30;2.97;;;25.40;50.30;;;;;;5045415;28;20454;-79
2021/06/04 12:20:27;;;;;;;3.10;2.80;;;25.40;50.20;;;;;;5038112;28;20406;-79
2021/06/04 12:23:36;;;;;;;2.70;2.50;;;25.40;50.20;;;;;;5038664;28;20410;-79
2021/06/04 12:26:02;;;;;;;2.73;2.53;;;25.40;50.20;;;;;;5038474;28;20399;-79
2021/06/04 12:31:28;;;;;;;3.10;2.83;;;25.40;50.30;;;;;;5015684;28;20414;-79
2021/06/04 12:34:40;;;;;;;3.50;3.27;;;25.40;50.20;;;;;;5038096;28;20414;-81
2021/06/04 12:37:27;;;;;;;4.43;2.70;;;25.40;50.20;;;;;;4956616;29;20462;-80
2021/06/04 12:40:33;;;;;;;2.57;2.37;;;25.30;50.20;;;;;;4972892;29;20413;-80
2021/06/04 12:43:22;;;;;;;3.30;2.90;;;25.30;50.20;;;;;;4956768;29;20453;-80
2021/06/04 12:46:24;;;;;;;2.53;2.33;;;25.30;50.20;;;;;;4956510;29;20461;-80
2021/06/04 12:49:12;;;;;;;2.73;2.30;;;25.30;50.20;;;;;;4899586;29;20942;-80
2021/06/04 12:51:45;;;;;;;2.57;2.27;;;25.30;50.20;;;;;;4953608;29;20414;-80
2021/06/04 12:54:30;;;;;;;2.57;2.37;;;25.30;50.20;;;;;;4972271;29;20429;-80
2021/06/04 12:56:59;;;;;;;2.93;2.67;;;25.30;50.20;;;;;;4956461;29;20453;-80
2021/06/04 12:59:35;;;;;;;2.40;2.20;;;25.30;50.20;;;;;;4972733;29;20410;-80
2021/06/04 13:18:40;;;;;;;2.77;2.30;;;25.20;50.20;;;;;;4959839;28;20499;-79
2021/06/04 13:21:39;;;;;;;2.63;2.43;;;25.20;50.30;;;;;;4960181;28;20383;-80
2021/06/04 13:27:05;;;;;;;2.60;2.40;;;25.20;50.20;;;;;;4988481;26;20432;-84
2021/06/04 13:29:45;;;;;;;3.03;2.70;;;25.20;50.20;;;;;;4998635;28;20398;-80
2021/06/04 13:32:57;;;;;;;2.40;2.20;;;25.20;50.20;;;;;;4998881;28;20399;-79
2021/06/04 13:39:57;;;;;;;2.63;2.43;;;25.20;50.20;;;;;;4918044;29;20423;-79
2021/06/04 13:45:55;;;;;;;2.60;2.37;;;25.20;50.20;;;;;;4895386;29;20401;-80
2021/06/04 13:49:28;;;;;;;3.57;2.47;;;25.20;50.30;;;;;;4888712;29;20520;-80
2021/06/04 13:52:22;;;;;;;2.77;2.57;;;25.30;50.30;;;;;;4833235;29;20442;-80
2021/06/04 13:55:25;;;;;;;2.73;2.50;;;25.20;50.20;;;;;;4895197;29;20426;-79
2021/06/04 14:01:09;;;;;;;2.97;2.03;;;25.30;50.30;;;;;;4894672;29;20425;-79
2021/06/04 14:03:43;;;;;;;2.27;2.07;;;25.30;50.30;;;;;;4899596;29;20429;-80
2021/06/04 14:06:38;;;;;;;2.70;2.50;;;25.30;50.30;;;;;;4903121;29;20421;-80
2021/06/04 14:09:20;;;;;;;2.70;2.50;;;25.30;50.30;;;;;;4921174;29;20422;-82
2021/06/04 14:12:31;;;;;;;2.50;2.30;;;25.40;50.40;;;;;;4921183;29;20501;-82
2021/06/04 14:14:57;;;;;;;2.50;2.20;;;25.40;50.40;;;;;;4832022;29;20415;-82
2021/06/04 14:17:32;;;;;;;2.90;2.70;;;25.30;50.90;;;;;;4962720;29;20442;-81
2021/06/04 14:20:43;;;;;;;2.60;2.40;;;25.40;50.40;;;;;;5006743;28;20420;-82
2021/06/04 14:23:33;;;;;;;2.50;2.10;;;25.40;50.30;;;;;;4908678;29;20416;-82
2021/06/04 14:33:38;;;;;;;2.73;2.50;;;25.40;50.30;;;;;;4923809;29;20480;-82
2021/06/04 14:39:44;;;;;;;2.90;2.60;;;25.40;50.20;;;;;;4923352;29;20415;-82
2021/06/04 14:42:50;;;;;;;3.30;2.40;;;25.40;50.20;;;;;;4922315;29;20427;-82
2021/06/04 14:54:33;;;;;;;2.40;2.20;;;25.40;50.20;;;;;;4980902;29;20761;-82
2021/06/04 14:57:31;;;;;;;2.73;2.53;;;25.40;50.10;;;;;;4980822;28;20473;-84
2021/06/04 15:03:40;;;;;;;;;;;;;;;;;;;;;
2021/06/04 15:09:42;;;;;;;2.83;2.63;;;25.40;50.10;;;;;;4866756;29;20482;-83
2021/06/04 15:12:19;;;;;;;4.87;2.93;;;25.40;50.10;;;;;;4866440;29;20436;-83
2021/06/04 15:14:54;;;;;;;2.53;2.07;;;25.40;50.10;;;;;;4864833;29;20411;-85
2021/06/04 15:17:27;;;;;;;2.70;2.50;;;25.40;50.20;;;;;;4864399;29;20478;-83
2021/06/04 15:26:08;;;;;;;4.53;3.00;;;25.40;50.10;;;;;;4882200;29;20394;-83
2021/06/04 15:28:34;;;;;;;3.20;2.90;;;25.40;50.10;;;;;;4882235;29;20414;-83
2021/06/04 15:31:33;;;;;;;2.50;2.30;;;25.40;50.10;;;;;;4881291;29;20434;-87
2021/06/04 15:37:24;;;;;;;2.63;2.23;;;25.40;50.10;;;;;;4863710;29;20570;-83
2021/06/04 15:39:55;;;;;;;3.43;2.20;;;25.30;50.10;;;;;;4869434;29;20949;-82
2021/06/04 15:43:16;;;;;;;2.73;2.53;;;25.40;50.20;;;;;;4893063;29;20442;-81
2021/06/04 15:46:04;;;;;;;2.57;2.37;;;25.40;50.10;;;;;;4941008;29;20434;-81
2021/06/04 15:55:19;;;;;;;16.60;2.67;;;25.40;50.20;;;;;;4902932;29;20412;-81
2021/06/04 15:58:12;;;;;;;2.77;2.50;;;25.40;50.20;;;;;;4959206;29;20570;-82
2021/06/04 16:01:33;;;;;;;2.40;2.20;;;25.40;50.20;;;;;;4956963;29;20415;-80
2021/06/04 16:08:50;;;;;;;;;;;;;;;;;;;;;
2021/06/04 16:11:57;;;;;;;3.03;2.40;;;25.40;50.20;;;;;;4826051;29;20457;-81
2021/06/04 16:14:30;;;;;;;3.10;2.40;;;25.40;50.30;;;;;;4831507;29;20492;-80
2021/06/04 16:17:38;;;;;;;;;;;;;;;;;;;;;
2021/06/04 16:44:25;;;;;;;;;;;;;;;;;;;;;
2021/06/04 16:47:07;;;;;;;2.70;2.40;;;25.30;50.40;;;;;;4783952;30;20450;-80
2021/06/04 16:49:46;;;;;;;2.80;2.33;;;25.30;50.40;;;;;;4793283;30;20418;-80
2021/06/04 17:03:20;;;;;;;;;;;;;;;;;;;;;
2021/06/04 17:13:09;;;;;;;2.10;2.00;;;25.40;50.40;;;;;;4753476;30;20404;-81
2021/06/04 17:16:20;;;;;;;3.57;2.43;;;25.30;50.40;;;;;;4757013;30;20428;-80
2021/06/04 17:19:12;;;;;;;2.47;2.27;;;25.30;50.90;;;;;;4771413;30;20532;-81
2021/06/04 17:22:12;;;;;;;3.00;2.53;;;25.30;50.40;;;;;;4769357;30;20424;-80
2021/06/04 17:25:09;;;;;;;4.77;2.20;;;25.40;50.40;;;;;;4829581;29;20416;-81
2021/06/04 17:28:02;;;;;;;4.40;2.40;;;25.30;50.40;;;;;;4839015;29;20491;-80
2021/06/04 17:31:27;;;;;;;;;;;;;;;;;;;;;
2021/06/04 17:33:59;;;;;;;6.43;2.97;;;25.30;50.40;;;;;;4913517;29;20451;-80
2021/06/04 17:36:41;;;;;;;2.87;2.57;;;25.30;50.40;;;;;;4898167;29;20496;-79
2021/06/04 17:45:38;;;;;;;3.23;2.30;;;25.40;50.50;;;;;;4918606;29;20432;-81
2021/06/04 17:48:11;;;;;;;3.50;2.27;;;25.30;50.40;;;;;;4917901;29;20407;-81
2021/06/04 17:50:51;;;;;;;3.80;2.70;;;25.40;50.50;;;;;;4918561;29;20405;-81
2021/06/04 17:53:40;;;;;;;8.10;2.20;;;25.40;50.50;;;;;;4918486;29;20421;-81
2021/06/04 17:56:34;;;;;;;3.77;2.40;;;25.30;50.40;;;;;;4918005;29;20443;-82
2021/06/04 17:59:03;;;;;;;4.70;2.90;;;25.30;50.40;;;;;;4955248;28;20463;-80
2021/06/04 18:01:29;;;;;;;4.77;2.47;;;25.40;50.50;;;;;;4990891;28;20402;-80
2021/06/04 18:03:59;;;;;;;3.47;2.67;;;25.40;50.50;;;;;;4973399;28;20477;-80
2021/06/04 18:06:29;;;;;;;3.70;2.70;;;25.40;50.50;;;;;;4991403;28;20405;-81
2021/06/04 18:09:07;;;;;;;3.63;2.20;;;25.40;50.40;;;;;;4973497;28;20452;-81
2021/06/04 18:11:42;;;;;;;3.97;2.17;;;25.40;50.50;;;;;;4978316;28;20476;-82
2021/06/04 18:14:27;;;;;;;2.70;2.50;;;25.40;50.40;;;;;;4977781;28;20429;-79
2021/06/04 18:16:55;;;;;;;5.40;2.53;;;25.40;50.50;;;;;;4976906;28;20429;-80
2021/06/04 18:19:22;;;;;;;2.80;2.40;;;25.40;50.50;;;;;;4993629;28;20413;-80
2021/06/04 18:21:54;;;;;;;2.83;2.40;;;25.40;50.50;;;;;;4993576;28;20469;-80
2021/06/04 18:24:30;;;;;;;2.93;2.27;;;25.40;50.50;;;;;;4977114;28;20445;-80
2021/06/04 18:26:59;;;;;;;4.80;2.00;;;25.40;50.50;;;;;;4976978;28;20400;-80
2021/06/04 18:29:28;;;;;;;3.47;2.13;;;25.40;50.50;;;;;;4977102;28;20440;-80
2021/06/04 18:31:55;;;;;;;3.70;2.70;;;25.40;50.50;;;;;;4994229;28;20417;-80
2021/06/04 18:40:57;;;;;;;7.30;2.60;;;25.40;50.50;;;;;;4935711;29;20525;-80
2021/06/04 18:43:58;;;;;;;3.00;2.20;;;25.30;50.50;;;;;;4972502;28;20401;-80
2021/06/04 18:46:27;;;;;;;4.03;2.50;;;25.30;50.50;;;;;;4968648;28;20497;-80
2021/06/04 18:48:59;;;;;;;4.30;2.70;;;25.30;50.50;;;;;;4977339;28;20398;-80
2021/06/04 18:51:45;;;;;;;4.43;2.63;;;25.40;50.60;;;;;;4997196;28;20432;-79
2021/06/04 18:54:43;;;;;;;3.43;2.60;;;25.40;50.60;;;;;;4997940;28;20394;-79